sensor_id;sensor_type;location;lat;lon;timestamp;pressure;altitude;pressure_sealevel;temperature;humidity
64679;BME280;51094;53.864;27.676;2023-03-13T00:01:34;98685.13;;;-3.32;71.73
64679;BME280;51094;53.864;27.676;2023-03-13T00:04:01;98689.44;;;-3.36;71.45
64679;BME280;51094;53.864;27.676;2023-03-13T00:06:34;98650.34;;;-3.65;71.33
64679;BME280;51094;53.864;27.676;2023-03-13T00:09:03;98663.13;;;-3.69;71.50
64679;BME280;51094;53.864;27.676;2023-03-13T00:11:31;98705.72;;;-3.43;70.61
64679;BME280;51094;53.864;27.676;2023-03-13T00:14:00;98669.19;;;-3.74;70.05
64679;BME280;51094;53.864;27.676;2023-03-13T00:16:28;98701.69;;;-3.51;70.30
64679;BME280;51094;53.864;27.676;2023-03-13T00:18:56;98718.63;;;-3.50;70.20
64679;BME280;51094;53.864;27.676;2023-03-13T00:21:26;98687.69;;;-3.69;69.89
64679;BME280;51094;53.864;27.676;2023-03-13T00:23:53;98722.19;;;-3.59;69.36
64679;BME280;51094;53.864;27.676;2023-03-13T00:26:23;98607.25;;;-4.44;68.50
64679;BME280;51094;53.864;27.676;2023-03-13T00:28:50;98709.09;;;-3.79;69.49
64679;BME280;51094;53.864;27.676;2023-03-13T00:33:50;98692.22;;;-3.82;68.41
64679;BME280;51094;53.864;27.676;2023-03-13T00:36:20;98644.72;;;-4.17;67.96
64679;BME280;51094;53.864;27.676;2023-03-13T00:38:48;98733.31;;;-3.63;68.19
64679;BME280;51094;53.864;27.676;2023-03-13T00:41:23;98740.88;;;-3.61;68.30
64679;BME280;51094;53.864;27.676;2023-03-13T00:43:52;98736.66;;;-3.61;68.38
64679;BME280;51094;53.864;27.676;2023-03-13T00:46:22;98736.66;;;-3.61;67.92
64679;BME280;51094;53.864;27.676;2023-03-13T00:48:49;98740.00;;;-3.59;67.92
64679;BME280;51094;53.864;27.676;2023-03-13T00:51:18;98707.81;;;-3.98;67.00
64679;BME280;51094;53.864;27.676;2023-03-13T00:53:47;98743.50;;;-3.64;67.29
64679;BME280;51094;53.864;27.676;2023-03-13T00:56:15;98649.94;;;-4.23;66.86
64679;BME280;51094;53.864;27.676;2023-03-13T00:58:44;98563.13;;;-4.77;66.85
64679;BME280;51094;53.864;27.676;2023-03-13T01:01:15;98757.78;;;-3.59;67.12
64679;BME280;51094;53.864;27.676;2023-03-13T01:03:45;98760.38;;;-3.62;66.03
64679;BME280;51094;53.864;27.676;2023-03-13T01:06:15;98755.38;;;-3.65;65.94
64679;BME280;51094;53.864;27.676;2023-03-13T01:08:42;98754.75;;;-3.76;65.83
64679;BME280;51094;53.864;27.676;2023-03-13T01:11:12;98656.84;;;-4.31;66.22
64679;BME280;51094;53.864;27.676;2023-03-13T01:13:40;98719.56;;;-3.93;65.73
64679;BME280;51094;53.864;27.676;2023-03-13T01:16:12;98730.47;;;-3.89;65.67
64679;BME280;51094;53.864;27.676;2023-03-13T01:18:42;98754.81;;;-3.79;65.75
64679;BME280;51094;53.864;27.676;2023-03-13T01:21:10;98752.22;;;-3.76;66.35
64679;BME280;51094;53.864;27.676;2023-03-13T01:23:37;98761.56;;;-3.78;65.10
64679;BME280;51094;53.864;27.676;2023-03-13T01:26:06;98680.72;;;-4.38;66.08
64679;BME280;51094;53.864;27.676;2023-03-13T01:28:34;98734.84;;;-3.94;65.97
64679;BME280;51094;53.864;27.676;2023-03-13T01:31:14;98767.63;;;-3.85;65.57
64679;BME280;51094;53.864;27.676;2023-03-13T01:33:44;98745.25;;;-4.07;65.78
64679;BME280;51094;53.864;27.676;2023-03-13T01:36:14;98767.88;;;-3.96;65.47
64679;BME280;51094;53.864;27.676;2023-03-13T01:38:41;98773.06;;;-4.00;65.44
64679;BME280;51094;53.864;27.676;2023-03-13T01:41:10;98688.97;;;-4.72;65.65
64679;BME280;51094;53.864;27.676;2023-03-13T01:43:38;98771.47;;;-4.06;65.97
64679;BME280;51094;53.864;27.676;2023-03-13T01:46:20;98739.59;;;-4.21;65.59
64679;BME280;51094;53.864;27.676;2023-03-13T01:49:03;98764.81;;;-4.12;65.35
64679;BME280;51094;53.864;27.676;2023-03-13T01:51:39;98775.91;;;-4.17;65.49
64679;BME280;51094;53.864;27.676;2023-03-13T01:54:17;98803.09;;;-4.22;65.77
64679;BME280;51094;53.864;27.676;2023-03-13T01:59:39;98740.25;;;-4.54;66.25
64679;BME280;51094;53.864;27.676;2023-03-13T02:02:08;98785.38;;;-4.25;66.60
64679;BME280;51094;53.864;27.676;2023-03-13T02:04:37;98785.34;;;-4.24;66.72
64679;BME280;51094;53.864;27.676;2023-03-13T02:07:09;98755.59;;;-4.62;66.03
64679;BME280;51094;53.864;27.676;2023-03-13T02:09:40;98843.78;;;-4.27;66.00
64679;BME280;51094;53.864;27.676;2023-03-13T02:12:09;98794.03;;;-4.36;66.36
64679;BME280;51094;53.864;27.676;2023-03-13T02:14:40;98789.84;;;-4.37;66.50
64679;BME280;51094;53.864;27.676;2023-03-13T02:17:09;98710.34;;;-4.85;66.35
64679;BME280;51094;53.864;27.676;2023-03-13T02:19:48;98809.41;;;-4.43;66.59
64679;BME280;51094;53.864;27.676;2023-03-13T02:28:14;98808.59;;;-4.45;66.97
64679;BME280;51094;53.864;27.676;2023-03-13T02:30:43;98737.53;;;-4.93;66.50
64679;BME280;51094;53.864;27.676;2023-03-13T02:33:12;98744.13;;;-4.83;66.57
64679;BME280;51094;53.864;27.676;2023-03-13T02:35:41;98821.03;;;-4.33;67.00
64679;BME280;51094;53.864;27.676;2023-03-13T02:38:14;98718.19;;;-4.98;66.25
64679;BME280;51094;53.864;27.676;2023-03-13T02:40:44;98822.19;;;-4.49;66.68
64679;BME280;51094;53.864;27.676;2023-03-13T02:43:22;98838.28;;;-4.50;66.64
64679;BME280;51094;53.864;27.676;2023-03-13T02:48:42;98849.44;;;-4.60;66.98
64679;BME280;51094;53.864;27.676;2023-03-13T02:51:15;98831.63;;;-4.57;66.77
64679;BME280;51094;53.864;27.676;2023-03-13T02:53:45;98846.03;;;-4.58;67.14
64679;BME280;51094;53.864;27.676;2023-03-13T02:56:16;98873.19;;;-4.64;66.53
64679;BME280;51094;53.864;27.676;2023-03-13T02:58:46;98836.28;;;-4.82;66.44
64679;BME280;51094;53.864;27.676;2023-03-13T03:01:19;98818.97;;;-5.11;66.93
64679;BME280;51094;53.864;27.676;2023-03-13T03:03:46;98857.50;;;-4.88;66.87
64679;BME280;51094;53.864;27.676;2023-03-13T03:06:14;98854.19;;;-4.91;67.40
64679;BME280;51094;53.864;27.676;2023-03-13T03:08:42;98820.63;;;-5.10;67.38
64679;BME280;51094;53.864;27.676;2023-03-13T03:11:11;98788.91;;;-5.36;67.74
64679;BME280;51094;53.864;27.676;2023-03-13T03:13:39;98859.34;;;-4.97;67.95
64679;BME280;51094;53.864;27.676;2023-03-13T03:16:11;98877.00;;;-4.93;67.45
64679;BME280;51094;53.864;27.676;2023-03-13T03:18:39;98842.59;;;-5.09;67.78
64679;BME280;51094;53.864;27.676;2023-03-13T03:21:06;98798.97;;;-5.29;67.75
64679;BME280;51094;53.864;27.676;2023-03-13T03:23:37;98759.59;;;-5.52;67.53
64679;BME280;51094;53.864;27.676;2023-03-13T03:26:05;98854.22;;;-4.94;68.00
64679;BME280;51094;53.864;27.676;2023-03-13T03:28:33;98646.56;;;-6.14;67.63
64679;BME280;51094;53.864;27.676;2023-03-13T03:31:06;98830.75;;;-5.09;67.80
64679;BME280;51094;53.864;27.676;2023-03-13T03:33:35;98854.31;;;-5.00;68.07
64679;BME280;51094;53.864;27.676;2023-03-13T03:36:06;98850.06;;;-4.98;67.87
64679;BME280;51094;53.864;27.676;2023-03-13T03:38:36;98681.75;;;-5.97;67.62
64679;BME280;51094;53.864;27.676;2023-03-13T03:41:08;98852.53;;;-4.94;67.71
64679;BME280;51094;53.864;27.676;2023-03-13T03:43:35;98863.47;;;-4.92;67.86
64679;BME280;51094;53.864;27.676;2023-03-13T03:46:05;98859.25;;;-4.93;67.67
64679;BME280;51094;53.864;27.676;2023-03-13T03:48:33;98855.75;;;-4.83;68.40
64679;BME280;51094;53.864;27.676;2023-03-13T03:51:04;98857.41;;;-4.82;67.08
64679;BME280;51094;53.864;27.676;2023-03-13T03:53:36;98683.34;;;-5.90;67.51
64679;BME280;51094;53.864;27.676;2023-03-13T03:56:03;98802.31;;;-5.27;67.55
64679;BME280;51094;53.864;27.676;2023-03-13T03:58:31;98861.06;;;-5.01;67.64
64679;BME280;51094;53.864;27.676;2023-03-13T04:01:14;98846.91;;;-5.16;67.19
64679;BME280;51094;53.864;27.676;2023-03-13T04:03:41;98842.06;;;-5.31;67.73
64679;BME280;51094;53.864;27.676;2023-03-13T04:06:09;98822.03;;;-5.48;67.87
64679;BME280;51094;53.864;27.676;2023-03-13T04:08:38;98767.72;;;-5.90;67.88
64679;BME280;51094;53.864;27.676;2023-03-13T04:11:05;98862.44;;;-5.37;68.24
64679;BME280;51094;53.864;27.676;2023-03-13T04:13:36;98885.13;;;-5.29;67.84
64679;BME280;51094;53.864;27.676;2023-03-13T04:16:07;98841.69;;;-5.65;68.17
64679;BME280;51094;53.864;27.676;2023-03-13T04:18:35;98886.84;;;-5.30;68.53
64679;BME280;51094;53.864;27.676;2023-03-13T04:21:04;98885.91;;;-5.24;68.45
64679;BME280;51094;53.864;27.676;2023-03-13T04:23:52;98898.59;;;-5.24;67.92
64679;BME280;51094;53.864;27.676;2023-03-13T04:26:20;98896.94;;;-5.28;67.93
64679;BME280;51094;53.864;27.676;2023-03-13T04:28:50;98892.84;;;-5.37;68.30
64679;BME280;51094;53.864;27.676;2023-03-13T04:31:25;98903.91;;;-5.44;68.79
64679;BME280;51094;53.864;27.676;2023-03-13T04:34:25;98846.84;;;-5.74;68.75
64679;BME280;51094;53.864;27.676;2023-03-13T04:37:13;98911.53;;;-5.47;68.75
64679;BME280;51094;53.864;27.676;2023-03-13T04:39:49;98880.44;;;-5.60;69.37
64679;BME280;51094;53.864;27.676;2023-03-13T04:42:36;98910.56;;;-5.37;68.94
64679;BME280;51094;53.864;27.676;2023-03-13T04:45:40;98917.38;;;-5.41;69.12
64679;BME280;51094;53.864;27.676;2023-03-13T04:48:43;98923.38;;;-5.49;69.42
64679;BME280;51094;53.864;27.676;2023-03-13T04:51:28;98926.75;;;-5.47;69.63
64679;BME280;51094;53.864;27.676;2023-03-13T04:54:28;98903.16;;;-5.54;69.62
64679;BME280;51094;53.864;27.676;2023-03-13T04:57:05;98901.41;;;-5.47;69.92
64679;BME280;51094;53.864;27.676;2023-03-13T05:00:10;98792.09;;;-5.83;69.64
64679;BME280;51094;53.864;27.676;2023-03-13T05:02:46;98910.16;;;-5.05;69.78
64679;BME280;51094;53.864;27.676;2023-03-13T05:05:45;98830.47;;;-5.49;69.11
64679;BME280;51094;53.864;27.676;2023-03-13T05:08:31;98858.97;;;-5.31;68.86
64679;BME280;51094;53.864;27.676;2023-03-13T05:11:18;98852.34;;;-5.42;68.71
64679;BME280;51094;53.864;27.676;2023-03-13T05:14:05;98938.50;;;-4.77;68.86
64679;BME280;51094;53.864;27.676;2023-03-13T05:16:52;98936.53;;;-4.60;68.88
64679;BME280;51094;53.864;27.676;2023-03-13T05:19:47;98818.47;;;-5.34;68.25
64679;BME280;51094;53.864;27.676;2023-03-13T05:22:32;98858.09;;;-5.27;68.58
64679;BME280;51094;53.864;27.676;2023-03-13T05:25:16;98928.31;;;-4.76;68.10
64679;BME280;51094;53.864;27.676;2023-03-13T05:28:01;98959.31;;;-4.55;68.18
64679;BME280;51094;53.864;27.676;2023-03-13T05:30:50;98961.94;;;-4.61;67.76
64679;BME280;51094;53.864;27.676;2023-03-13T05:33:29;98959.38;;;-4.58;67.91
64679;BME280;51094;53.864;27.676;2023-03-13T05:36:15;98960.13;;;-4.52;67.63
64679;BME280;51094;53.864;27.676;2023-03-13T05:38:57;98884.91;;;-5.14;67.25
64679;BME280;51094;53.864;27.676;2023-03-13T05:41:47;98813.56;;;-5.47;67.19
64679;BME280;51094;53.864;27.676;2023-03-13T05:44:23;98946.81;;;-4.68;67.49
64679;BME280;51094;53.864;27.676;2023-03-13T05:46:50;98861.16;;;-5.07;67.63
64679;BME280;51094;53.864;27.676;2023-03-13T05:49:38;98941.34;;;-4.40;67.59
64679;BME280;51094;53.864;27.676;2023-03-13T05:52:24;98932.81;;;-4.93;67.09
64679;BME280;51094;53.864;27.676;2023-03-13T05:55:17;98979.69;;;-4.06;67.01
64679;BME280;51094;53.864;27.676;2023-03-13T05:58:03;98983.91;;;-4.04;66.12
64679;BME280;51094;53.864;27.676;2023-03-13T06:01:10;98993.97;;;-3.97;66.48
64679;BME280;51094;53.864;27.676;2023-03-13T06:03:51;99030.22;;;-3.89;65.72
64679;BME280;51094;53.864;27.676;2023-03-13T06:06:18;98849.84;;;-4.85;65.36
64679;BME280;51094;53.864;27.676;2023-03-13T06:08:51;98988.06;;;-3.99;65.53
64679;BME280;51094;53.864;27.676;2023-03-13T06:11:20;98941.97;;;-4.29;65.78
64679;BME280;51094;53.864;27.676;2023-03-13T06:13:47;99007.06;;;-3.73;66.56
64679;BME280;51094;53.864;27.676;2023-03-13T06:16:33;98759.16;;;-5.21;66.14
64679;BME280;51094;53.864;27.676;2023-03-13T06:19:18;98979.22;;;-3.79;64.28
64679;BME280;51094;53.864;27.676;2023-03-13T06:21:45;98987.72;;;-3.81;64.63
64679;BME280;51094;53.864;27.676;2023-03-13T06:24:12;98830.94;;;-4.67;65.24
64679;BME280;51094;53.864;27.676;2023-03-13T06:26:39;99007.53;;;-3.51;65.85
64679;BME280;51094;53.864;27.676;2023-03-13T06:29:06;98864.06;;;-4.25;64.40
64679;BME280;51094;53.864;27.676;2023-03-13T06:31:36;99013.13;;;-3.33;64.43
64679;BME280;51094;53.864;27.676;2023-03-13T06:34:04;98997.97;;;-3.38;64.05
64679;BME280;51094;53.864;27.676;2023-03-13T06:36:30;99036.53;;;-3.15;64.78
64679;BME280;51094;53.864;27.676;2023-03-13T06:38:57;98869.88;;;-3.74;64.95
64679;BME280;51094;53.864;27.676;2023-03-13T06:41:24;98936.50;;;-3.15;63.40
64679;BME280;51094;53.864;27.676;2023-03-13T06:43:51;98854.34;;;-3.59;63.49
64679;BME280;51094;53.864;27.676;2023-03-13T06:46:20;98846.16;;;-3.73;62.30
64679;BME280;51094;53.864;27.676;2023-03-13T06:48:49;99001.91;;;-2.80;61.24
64679;BME280;51094;53.864;27.676;2023-03-13T06:51:18;98984.38;;;-2.94;61.85
64679;BME280;51094;53.864;27.676;2023-03-13T06:53:46;98985.56;;;-2.70;62.03
64679;BME280;51094;53.864;27.676;2023-03-13T06:56:14;98963.19;;;-2.57;63.03
64679;BME280;51094;53.864;27.676;2023-03-13T06:58:41;98987.13;;;-2.26;62.10
64679;BME280;51094;53.864;27.676;2023-03-13T07:01:10;98912.22;;;-2.54;60.90
64679;BME280;51094;53.864;27.676;2023-03-13T07:03:38;98916.22;;;-2.44;58.42
64679;BME280;51094;53.864;27.676;2023-03-13T07:06:09;98915.44;;;-2.46;60.48
64679;BME280;51094;53.864;27.676;2023-03-13T07:08:36;99000.19;;;-1.72;60.33
64679;BME280;51094;53.864;27.676;2023-03-13T07:11:11;98993.09;;;-1.59;59.57
64679;BME280;51094;53.864;27.676;2023-03-13T07:13:38;98840.72;;;-2.45;58.91
64679;BME280;51094;53.864;27.676;2023-03-13T07:16:07;98966.72;;;-1.58;59.30
64679;BME280;51094;53.864;27.676;2023-03-13T07:18:35;98989.50;;;-1.21;59.12
64679;BME280;51094;53.864;27.676;2023-03-13T07:21:03;98983.28;;;-1.11;58.51
64679;BME280;51094;53.864;27.676;2023-03-13T07:23:32;98985.22;;;-0.89;58.79
64679;BME280;51094;53.864;27.676;2023-03-13T07:26:08;98977.41;;;-0.85;55.89
64679;BME280;51094;53.864;27.676;2023-03-13T07:28:36;98904.56;;;-1.24;55.94
64679;BME280;51094;53.864;27.676;2023-03-13T07:31:16;98979.69;;;-0.76;56.18
64679;BME280;51094;53.864;27.676;2023-03-13T07:33:44;98980.91;;;-0.87;54.45
64679;BME280;51094;53.864;27.676;2023-03-13T07:36:12;98956.00;;;-1.09;54.94
64679;BME280;51094;53.864;27.676;2023-03-13T07:38:40;98949.25;;;-1.11;54.22
64679;BME280;51094;53.864;27.676;2023-03-13T07:41:11;98985.94;;;-0.86;54.78
64679;BME280;51094;53.864;27.676;2023-03-13T07:43:41;98975.34;;;-0.72;54.47
64679;BME280;51094;53.864;27.676;2023-03-13T07:46:10;98975.81;;;-0.59;54.32
64679;BME280;51094;53.864;27.676;2023-03-13T07:48:40;98945.00;;;-0.53;54.48
64679;BME280;51094;53.864;27.676;2023-03-13T07:51:12;98906.09;;;-0.61;53.69
64679;BME280;51094;53.864;27.676;2023-03-13T07:53:39;98956.00;;;0.02;54.42
64679;BME280;51094;53.864;27.676;2023-03-13T07:56:09;98863.19;;;-0.25;53.11
64679;BME280;51094;53.864;27.676;2023-03-13T07:58:38;98958.50;;;0.53;51.30
64679;BME280;51094;53.864;27.676;2023-03-13T08:01:18;98931.53;;;0.19;50.33
64679;BME280;51094;53.864;27.676;2023-03-13T08:03:46;98944.69;;;0.33;49.92
64679;BME280;51094;53.864;27.676;2023-03-13T08:06:21;98861.78;;;-0.09;50.71
64679;BME280;51094;53.864;27.676;2023-03-13T08:08:50;98844.78;;;-0.10;49.60
64679;BME280;51094;53.864;27.676;2023-03-13T08:11:22;98780.13;;;-0.37;49.72
64679;BME280;51094;53.864;27.676;2023-03-13T08:13:51;98782.09;;;-0.20;50.03
64679;BME280;51094;53.864;27.676;2023-03-13T08:16:21;98897.06;;;0.78;50.58
64679;BME280;51094;53.864;27.676;2023-03-13T08:18:51;98825.19;;;0.60;48.48
64679;BME280;51094;53.864;27.676;2023-03-13T08:21:26;98945.69;;;1.01;47.58
64679;BME280;51094;53.864;27.676;2023-03-13T08:23:55;98932.88;;;1.01;48.26
64679;BME280;51094;53.864;27.676;2023-03-13T08:26:27;98930.13;;;1.29;49.95
64679;BME280;51094;53.864;27.676;2023-03-13T08:28:57;98848.75;;;1.14;49.70
64679;BME280;51094;53.864;27.676;2023-03-13T08:31:30;98915.56;;;1.73;49.04
64679;BME280;51094;53.864;27.676;2023-03-13T08:33:57;98916.84;;;1.83;48.78
64679;BME280;51094;53.864;27.676;2023-03-13T08:36:33;98895.25;;;1.69;47.76
64679;BME280;51094;53.864;27.676;2023-03-13T08:39:04;98940.47;;;2.12;48.15
64679;BME280;51094;53.864;27.676;2023-03-13T08:41:33;98843.25;;;1.85;48.47
64679;BME280;51094;53.864;27.676;2023-03-13T08:44:03;98868.94;;;2.24;47.40
64679;BME280;51094;53.864;27.676;2023-03-13T08:46:32;98888.78;;;2.60;49.38
64679;BME280;51094;53.864;27.676;2023-03-13T08:48:59;98888.50;;;2.85;47.27
64679;BME280;51094;53.864;27.676;2023-03-13T08:51:28;98891.81;;;3.06;46.92
64679;BME280;51094;53.864;27.676;2023-03-13T08:53:55;98890.41;;;3.17;47.25
64679;BME280;51094;53.864;27.676;2023-03-13T08:56:25;98830.75;;;2.93;45.76
64679;BME280;51094;53.864;27.676;2023-03-13T08:58:59;98892.91;;;3.38;45.22
64679;BME280;51094;53.864;27.676;2023-03-13T09:01:29;98859.41;;;3.39;46.20
64679;BME280;51094;53.864;27.676;2023-03-13T09:03:56;98884.00;;;3.96;46.54
64679;BME280;51094;53.864;27.676;2023-03-13T09:06:27;98775.44;;;3.40;45.25
64679;BME280;51094;53.864;27.676;2023-03-13T09:08:56;98732.47;;;2.90;44.99
64679;BME280;51094;53.864;27.676;2023-03-13T09:11:24;98870.31;;;4.13;44.85
64679;BME280;51094;53.864;27.676;2023-03-13T09:13:51;98865.84;;;4.17;45.90
64679;BME280;51094;53.864;27.676;2023-03-13T09:16:21;98796.28;;;4.18;45.16
64679;BME280;51094;53.864;27.676;2023-03-13T09:18:49;98846.25;;;4.63;44.85
64679;BME280;51094;53.864;27.676;2023-03-13T09:21:19;98871.78;;;4.99;45.07
64679;BME280;51094;53.864;27.676;2023-03-13T09:23:47;98822.53;;;4.74;43.27
64679;BME280;51094;53.864;27.676;2023-03-13T09:26:14;98782.63;;;4.49;42.42
64679;BME280;51094;53.864;27.676;2023-03-13T09:28:42;98844.78;;;5.06;44.43
64679;BME280;51094;53.864;27.676;2023-03-13T09:31:14;98844.44;;;5.12;42.40
64679;BME280;51094;53.864;27.676;2023-03-13T09:33:43;98785.19;;;4.81;43.30
64679;BME280;51094;53.864;27.676;2023-03-13T09:36:11;98798.16;;;5.11;43.54
64679;BME280;51094;53.864;27.676;2023-03-13T09:38:38;98803.72;;;5.49;44.03
64679;BME280;51094;53.864;27.676;2023-03-13T09:41:31;98842.47;;;5.77;42.89
64679;BME280;51094;53.864;27.676;2023-03-13T09:44:08;98833.97;;;5.61;42.32
64679;BME280;51094;53.864;27.676;2023-03-13T09:46:37;98826.25;;;5.75;41.84
64679;BME280;51094;53.864;27.676;2023-03-13T09:49:37;98829.94;;;6.15;42.25
64679;BME280;51094;53.864;27.676;2023-03-13T09:52:25;98687.66;;;5.49;40.86
64679;BME280;51094;53.864;27.676;2023-03-13T09:55:12;98743.19;;;5.98;41.74
64679;BME280;51094;53.864;27.676;2023-03-13T09:58:20;98828.41;;;6.82;40.57
64679;BME280;51094;53.864;27.676;2023-03-13T10:00:53;98820.56;;;6.84;40.25
64679;BME280;51094;53.864;27.676;2023-03-13T10:03:27;98822.34;;;6.69;39.66
64679;BME280;51094;53.864;27.676;2023-03-13T10:05:57;98810.41;;;6.40;40.36
64679;BME280;51094;53.864;27.676;2023-03-13T10:08:28;98771.94;;;6.76;39.48
64679;BME280;51094;53.864;27.676;2023-03-13T10:11:16;98807.84;;;7.34;40.66
64679;BME280;51094;53.864;27.676;2023-03-13T10:13:51;98793.16;;;7.08;39.25
64679;BME280;51094;53.864;27.676;2023-03-13T10:19:23;98792.69;;;6.19;41.41
64679;BME280;51094;53.864;27.676;2023-03-13T10:21:54;98730.59;;;5.64;42.81
64679;BME280;51094;53.864;27.676;2023-03-13T10:26:56;98731.38;;;5.06;43.75
64679;BME280;51094;53.864;27.676;2023-03-13T10:29:26;98776.78;;;5.39;44.71
64679;BME280;51094;53.864;27.676;2023-03-13T10:31:58;98735.66;;;5.21;44.96
64679;BME280;51094;53.864;27.676;2023-03-13T10:35:12;98654.69;;;4.95;44.84
64679;BME280;51094;53.864;27.676;2023-03-13T10:37:18;98694.72;;;5.89;43.64
64679;BME280;51094;53.864;27.676;2023-03-13T10:39:45;98732.84;;;6.27;42.72
64679;BME280;51094;53.864;27.676;2023-03-13T10:42:32;98737.34;;;6.23;42.95
64679;BME280;51094;53.864;27.676;2023-03-13T10:45:03;98745.84;;;6.11;42.65
64679;BME280;51094;53.864;27.676;2023-03-13T10:47:32;98718.06;;;5.58;44.09
64679;BME280;51094;53.864;27.676;2023-03-13T10:50:01;98752.50;;;6.01;44.28
64679;BME280;51094;53.864;27.676;2023-03-13T10:52:34;98744.81;;;6.28;44.75
64679;BME280;51094;53.864;27.676;2023-03-13T10:55:13;98740.75;;;6.38;44.51
64679;BME280;51094;53.864;27.676;2023-03-13T10:58:03;98723.25;;;6.70;44.03
64679;BME280;51094;53.864;27.676;2023-03-13T11:00:35;98727.59;;;7.09;43.34
64679;BME280;51094;53.864;27.676;2023-03-13T11:03:22;98727.59;;;7.09;43.26
64679;BME280;51094;53.864;27.676;2023-03-13T11:08:26;98722.28;;;6.98;43.38
64679;BME280;51094;53.864;27.676;2023-03-13T11:10:59;98725.72;;;6.45;44.32
64679;BME280;51094;53.864;27.676;2023-03-13T11:13:39;98720.22;;;6.08;45.44
64679;BME280;51094;53.864;27.676;2023-03-13T11:16:28;98712.06;;;5.72;45.91
64679;BME280;51094;53.864;27.676;2023-03-13T11:27:47;98738.28;;;5.06;48.14
64679;BME280;51094;53.864;27.676;2023-03-13T11:38:31;98703.88;;;4.61;49.52
64679;BME280;51094;53.864;27.676;2023-03-13T11:55:28;98710.28;;;4.70;50.40
64679;BME280;51094;53.864;27.676;2023-03-13T12:00:32;98607.59;;;4.18;51.44
64679;BME280;51094;53.864;27.676;2023-03-13T12:03:13;98685.94;;;4.75;51.08
64679;BME280;51094;53.864;27.676;2023-03-13T12:05:46;98665.34;;;4.59;50.74
64679;BME280;51094;53.864;27.676;2023-03-13T12:08:27;98549.03;;;3.60;50.84
64679;BME280;51094;53.864;27.676;2023-03-13T12:14:08;98653.19;;;4.31;52.87
64679;BME280;51094;53.864;27.676;2023-03-13T12:16:45;98651.22;;;4.35;52.57
64679;BME280;51094;53.864;27.676;2023-03-13T12:19:19;98671.50;;;4.41;52.54
64679;BME280;51094;53.864;27.676;2023-03-13T12:21:51;98660.56;;;4.22;52.58
64679;BME280;51094;53.864;27.676;2023-03-13T12:27:14;98664.69;;;4.40;53.37
64679;BME280;51094;53.864;27.676;2023-03-13T12:29:59;98652.88;;;4.52;53.72
64679;BME280;51094;53.864;27.676;2023-03-13T12:32:36;98645.00;;;4.39;53.47
64679;BME280;51094;53.864;27.676;2023-03-13T12:35:20;98605.59;;;3.91;53.58
64679;BME280;51094;53.864;27.676;2023-03-13T12:43:16;98630.94;;;4.15;53.78
64679;BME280;51094;53.864;27.676;2023-03-13T12:48:47;98508.06;;;3.41;54.23
64679;BME280;51094;53.864;27.676;2023-03-13T12:54:08;98623.69;;;4.06;54.68
64679;BME280;51094;53.864;27.676;2023-03-13T12:57:05;98612.16;;;3.97;54.64
64679;BME280;51094;53.864;27.676;2023-03-13T12:59:38;98527.97;;;3.38;55.44
64679;BME280;51094;53.864;27.676;2023-03-13T13:02:17;98607.94;;;3.96;55.24
64679;BME280;51094;53.864;27.676;2023-03-13T13:04:47;98605.44;;;3.94;55.11
64679;BME280;51094;53.864;27.676;2023-03-13T13:07:34;98534.84;;;3.53;55.04
64679;BME280;51094;53.864;27.676;2023-03-13T13:12:37;98559.91;;;3.65;56.11
64679;BME280;51094;53.864;27.676;2023-03-13T13:15:15;98584.06;;;3.78;56.16
64679;BME280;51094;53.864;27.676;2023-03-13T13:17:53;98589.63;;;3.86;56.19
64679;BME280;51094;53.864;27.676;2023-03-13T13:20:37;98424.81;;;2.81;56.72
64679;BME280;51094;53.864;27.676;2023-03-13T13:25:48;98563.81;;;3.72;56.29
64679;BME280;51094;53.864;27.676;2023-03-13T13:30:44;98481.78;;;3.36;56.77
64679;BME280;51094;53.864;27.676;2023-03-13T13:35:45;98570.28;;;3.79;57.15
64679;BME280;51094;53.864;27.676;2023-03-13T13:43:24;98413.94;;;2.60;57.84
64679;BME280;51094;53.864;27.676;2023-03-13T13:46:01;98423.19;;;2.62;58.11
64679;BME280;51094;53.864;27.676;2023-03-13T13:48:36;98562.63;;;3.46;58.15
64679;BME280;51094;53.864;27.676;2023-03-13T13:53:52;98560.16;;;3.45;58.89
64679;BME280;51094;53.864;27.676;2023-03-13T13:56:28;98560.97;;;3.45;59.18
64679;BME280;51094;53.864;27.676;2023-03-13T13:59:04;98575.06;;;3.38;59.83
64679;BME280;51094;53.864;27.676;2023-03-13T14:01:39;98503.94;;;2.90;59.97
64679;BME280;51094;53.864;27.676;2023-03-13T14:04:15;98565.13;;;3.15;60.66
64679;BME280;51094;53.864;27.676;2023-03-13T14:06:46;98550.59;;;2.98;61.56
64679;BME280;51094;53.864;27.676;2023-03-13T14:12:35;98544.22;;;3.05;61.70
64679;BME280;51094;53.864;27.676;2023-03-13T14:15:22;98528.41;;;2.97;62.54
64679;BME280;51094;53.864;27.676;2023-03-13T14:17:51;98539.22;;;2.86;63.25
64679;BME280;51094;53.864;27.676;2023-03-13T14:20:32;98527.81;;;2.75;63.72
64679;BME280;51094;53.864;27.676;2023-03-13T14:23:09;98522.69;;;2.75;63.61
64679;BME280;51094;53.864;27.676;2023-03-13T14:25:48;98461.13;;;2.40;63.96
64679;BME280;51094;53.864;27.676;2023-03-13T14:28:24;98439.19;;;2.34;63.66
64679;BME280;51094;53.864;27.676;2023-03-13T14:30:56;98433.44;;;2.29;64.30
64679;BME280;51094;53.864;27.676;2023-03-13T14:33:25;98464.53;;;2.41;64.22
64679;BME280;51094;53.864;27.676;2023-03-13T14:35:55;98516.94;;;2.70;64.99
64679;BME280;51094;53.864;27.676;2023-03-13T14:38:26;98486.78;;;2.23;66.55
64679;BME280;51094;53.864;27.676;2023-03-13T14:40:54;98496.75;;;2.29;66.96
64679;BME280;51094;53.864;27.676;2023-03-13T14:43:35;98501.44;;;2.38;67.06
64679;BME280;51094;53.864;27.676;2023-03-13T14:48:53;98511.69;;;2.04;70.03
64679;BME280;51094;53.864;27.676;2023-03-13T14:51:25;98515.97;;;2.03;70.07
64679;BME280;51094;53.864;27.676;2023-03-13T14:54:01;98427.50;;;1.41;72.53
64679;BME280;51094;53.864;27.676;2023-03-13T14:56:36;98465.91;;;1.60;72.53
64679;BME280;51094;53.864;27.676;2023-03-13T14:59:14;98312.81;;;0.76;72.03
64679;BME280;51094;53.864;27.676;2023-03-13T15:01:43;98497.06;;;2.06;73.21
64679;BME280;51094;53.864;27.676;2023-03-13T15:04:11;98491.38;;;1.99;72.80
64679;BME280;51094;53.864;27.676;2023-03-13T15:06:38;98475.59;;;1.89;72.74